Terminal Aerodrome Forecast
Issued by NWS Austin/San Antonio, TX

Home | Current Version | Previous Version | Text Only | Print | Product List | Glossary On
Versions: 1 2 3 4 5 6 7 8 9 10 11 12 13 14
886
FTUS44 KEWX 180537
TAFSAT
TAF
KSAT 180537Z 1806/1912 14008KT P6SM SKC
     FM180900 17005KT P6SM BKN015
     FM181500 15010KT P6SM SCT040
     FM190100 14014KT P6SM FEW250=

USA.gov is the U.S. government's official web portal to all federal, state and local government web resources and services.